Latest Weather Observations for Mount Hotham AWS

IDV60801

Issued at 2:31 pm EDT Monday 2 March 2015 (issued every 30 minutes, with the page automatically refreshed every 10 minutes)

About weather observations | Map of weather stations | Latest weather observations for VIC | Other Formats
Station Details ID: 083085 Name: MOUNT HOTHAM Lat: -36.98 Lon: 147.13 Height: 1849.0 m
Data from the previous 72 hours. | See also: Recent months at Mount Hotham AWS
Date/Time
EDT
Temp
°C
App
Temp
°C
Dew
Point
Rel
Hum
%
Delta-T
°C
Wind Press
QNH
hPa
Press
MSL
hPa
Rain
since 9 am
mm
Dir
 
Spd
km/h
Gust
km/h
Spd
kts
Gust
kts
02/02:30pm 12.4 6.9 3.9 56 4.3 N 22 32 12 17 - - 0.0
02/02:00pm 11.9 6.0 3.7 57 4.1 N 24 33 13 18 - - 0.0
02/01:30pm 11.9 5.8 4.6 61 3.7 N 26 35 14 19 - - 0.0
02/01:00pm 11.0 4.5 4.5 64 3.3 NNE 28 37 15 20 - - 0.0
02/12:30pm 10.0 2.6 4.2 67 2.9 NNE 32 43 17 23 - - 0.0
02/12:00pm 10.3 3.1 5.7 73 2.4 N 33 39 18 21 - - 0.0
02/11:30am 10.4 3.7 5.8 73 2.4 N 30 37 16 20 - - 0.0
02/11:00am 9.5 2.9 6.2 80 1.7 N 30 35 16 19 - - 0.0
02/10:30am 10.6 3.5 3.6 62 3.4 NNE 30 35 16 19 - - 0.0
02/10:00am 10.0 3.1 2.8 61 3.5 NNE 28 33 15 18 - - 0.0
02/09:30am 8.9 2.1 2.9 66 2.9 N 28 32 15 17 - - 0.0
02/09:00am 8.8 2.9 1.5 60 3.4 N 22 26 12 14 - - 0.0
02/08:30am 7.8 1.4 1.2 63 3.0 N 24 30 13 16 - - 0.0
02/08:00am 7.1 0.2 -0.1 60 3.2 N 26 30 14 16 - - 0.0
02/07:30am 5.9 -0.9 -4.8 46 4.1 N 22 24 12 13 - - 0.0
02/07:00am 6.3 -0.9 -10.0 30 5.6 NNE 22 28 12 15 - - 0.0
02/06:30am 7.0 -0.2 -16.3 17 6.9 N 20 22 11 12 - - 0.0
02/06:00am 7.6 0.4 -19.0 13 7.5 N 19 22 10 12 - - 0.0
02/05:30am 6.8 0.4 -18.0 15 7.4 N 15 19 8 10 - - 0.0
02/05:00am 8.3 2.2 -22.7 9 8.1 NNE 13 17 7 9 - - 0.0
02/04:30am 11.5 5.2 -29.2 4 9.9 NE 13 17 7 9 - - 0.0
02/04:00am 10.4 3.4 -27.6 5 9.3 E 17 17 9 9 - - 0.0
02/03:30am 7.3 0.2 -18.4 14 7.7 E 19 20 10 11 - - 0.0
02/03:00am 6.0 -1.0 -14.6 21 6.6 ESE 19 24 10 13 - - 0.0
02/02:30am 2.1 -4.6 -1.0 80 1.3 ESE 24 32 13 17 - - 0.0
02/02:00am 2.6 -4.7 -3.1 66 2.2 ESE 26 33 14 18 - - 0.0
02/01:30am 1.4 -6.6 0.4 93 0.4 ESE 32 43 17 23 - - 0.0
02/01:00am 1.2 -6.3 1.1 99 0.0 ESE 30 41 16 22 - - 0.0
02/12:30am 1.6 -7.9 1.5 99 0.0 SE 41 48 22 26 - - 0.0
02/12:00am 1.7 -7.1 1.6 99 0.0 ESE 37 57 20 31 - - 0.0
 
Date/Time
EDT
Temp
°C
App
Temp
°C
Dew
Point
Rel
Hum
%
Delta-T
°C
Wind Press
QNH
hPa
Press
MSL
hPa
Rain
since 9 am
mm
Dir
 
Spd
km/h
Gust
km/h
Spd
kts
Gust
kts
01/11:34pm 2.1 -7.9 1.2 94 0.4 SE 43 61 23 33 - - 0.0
01/11:30pm 2.1 -8.3 2.0 99 0.0 SE 46 56 25 30 - - 0.0
01/11:00pm 2.3 -8.6 1.4 94 0.4 SE 48 59 26 32 - - 0.0
01/10:31pm 2.8 -6.2 2.7 99 0.0 SE 39 57 21 31 - - 0.0
01/10:30pm 2.7 -5.9 2.6 99 0.0 ESE 37 50 20 27 - - 0.0
01/10:00pm 2.7 -7.0 2.6 99 0.0 SE 43 52 23 28 - - 0.0
01/09:30pm 3.1 -6.8 3.0 99 0.0 SE 44 56 24 30 - - 0.0
01/09:17pm 3.4 -6.2 3.3 99 0.0 SE 43 50 23 27 - - 0.0
01/09:13pm 3.4 -6.2 3.3 99 0.0 SE 43 59 23 32 - - 0.0
01/09:00pm 3.1 -6.8 3.0 99 0.0 SSE 44 59 24 32 - - 0.0
01/08:30pm 3.6 -7.4 3.2 97 0.2 SSE 50 61 27 33 - - 0.0
01/08:04pm 4.2 -6.4 3.2 93 0.5 S 48 67 26 36 - - 0.0
01/08:00pm 4.4 -6.9 3.2 92 0.6 SSE 52 67 28 36 - - 0.0
01/07:30pm 4.9 -7.2 3.1 88 0.8 S 56 65 30 35 - - 0.0
01/07:00pm 5.9 -5.3 4.2 89 0.8 SSE 52 65 28 35 - - 0.0
01/06:30pm 6.6 -3.9 3.9 83 1.3 SSE 48 57 26 31 - - 0.0
01/06:00pm 7.3 -1.4 4.3 81 1.5 S 39 50 21 27 - - 0.0
01/05:30pm 7.4 -2.7 3.5 76 1.9 SSE 46 54 25 29 - - 0.0
01/05:07pm 7.3 -1.4 4.3 81 1.5 SSE 39 57 21 31 - - 0.0
01/05:00pm 7.0 -1.7 4.0 81 1.4 SSE 39 50 21 27 - - 0.0
01/04:30pm 7.5 -0.5 3.6 76 1.9 SSE 35 48 19 26 - - 0.0
01/04:00pm 6.6 -1.0 6.0 96 0.3 S 35 41 19 22 - - 0.0
01/03:30pm 5.8 -1.4 5.7 99 0.0 S 33 39 18 21 - - 0.0
01/03:00pm 6.4 -0.1 6.3 99 0.1 S 30 37 16 20 - - 0.0
01/02:30pm 6.5 0.4 6.4 99 0.1 S 28 32 15 17 - - 0.0
01/02:00pm 7.4 3.0 7.3 99 0.1 S 20 28 11 15 - - 0.0
01/01:30pm 7.1 1.8 7.0 99 0.1 S 24 28 13 15 - - 0.0
01/01:00pm 8.0 3.9 7.9 99 0.1 S 19 24 10 13 - - 0.0
01/12:30pm 8.4 4.8 8.3 99 0.1 S 17 20 9 11 - - 0.0
01/12:00pm 8.8 5.3 8.7 99 0.1 S 17 24 9 13 - - 0.0
01/11:30am 8.7 6.3 8.6 99 0.1 SSW 11 20 6 11 - - 0.0
01/11:00am 9.7 7.9 9.6 99 0.1 SW 9 15 5 8 - - 0.0
01/10:30am 10.9 8.7 10.7 99 0.1 WNW 13 19 7 10 - - 0.0
01/10:00am 10.5 8.5 10.3 99 0.1 WNW 11 15 6 8 - - 0.0
01/09:30am 9.8 7.3 9.7 99 0.1 NW 13 17 7 9 - - 0.0
01/09:00am 9.5 6.9 9.4 99 0.1 WNW 13 17 7 9 - - 5.0
01/08:30am 9.7 6.4 9.6 99 0.1 WNW 17 22 9 12 - - 5.0
01/08:00am 9.7 5.1 9.6 99 0.1 NW 24 30 13 16 - - 5.0
01/07:30am 9.9 5.0 9.8 99 0.1 N 26 37 14 20 - - 5.0
01/07:00am 9.9 5.0 9.8 99 0.1 N 26 35 14 19 - - 4.8
01/06:30am 9.9 3.6 9.8 99 0.1 N 33 44 18 24 - - 4.8
01/06:00am 10.0 3.4 9.9 99 0.1 N 35 46 19 25 - - 4.6
01/05:30am 10.1 3.1 9.9 99 0.1 N 37 52 20 28 - - 4.6
01/05:05am 10.5 1.9 10.3 99 0.1 N 46 65 25 35 - - 4.6
01/05:00am 10.4 2.1 10.2 99 0.1 N 44 57 24 31 - - 4.4
01/04:30am 10.3 3.3 10.1 99 0.1 N 37 44 20 24 - - 4.2
01/04:00am 9.6 3.2 9.5 99 0.1 N 33 46 18 25 - - 4.2
01/03:33am 10.0 3.0 9.9 99 0.1 NNW 37 57 20 31 - - 4.0
01/03:30am 10.0 3.4 9.9 99 0.1 NNW 35 56 19 30 - - 3.6
01/03:29am 10.1 3.5 9.9 99 0.1 NNW 35 56 19 30 - - 3.6
01/03:25am 10.0 4.7 9.9 99 0.1 NNW 28 56 15 30 - - 2.6
01/03:00am 9.7 3.8 7.3 85 1.3 W 28 48 15 26 - - 0.2
01/02:58am 9.9 4.0 7.3 84 1.4 WSW 28 48 15 26 - - 0.0
01/02:30am 11.5 4.4 5.4 66 3.1 NNW 32 44 17 24 - - 0.0
01/02:00am 13.0 6.0 3.9 54 4.6 N 30 37 16 20 - - 0.0
01/01:37am 13.9 5.4 3.4 49 5.3 N 37 56 20 30 - - 0.0
01/01:36am 13.9 5.4 3.4 49 5.3 N 37 56 20 30 - - 0.0
01/01:30am 14.0 5.2 3.5 49 5.3 N 39 54 21 29 - - 0.0
01/01:05am 13.2 3.5 4.1 54 4.6 N 44 63 24 34 - - 0.0
01/01:00am 13.0 4.3 4.2 55 4.4 N 39 56 21 30 - - 0.0
01/12:57am 13.4 5.4 3.8 52 4.8 N 35 54 19 29 - - 0.0
01/12:30am 12.5 4.6 4.5 58 4.1 N 35 54 19 29 - - 0.0
01/12:04am 15.6 4.3 3.7 45 6.1 N 52 70 28 38 - - 0.0
01/12:00am 15.5 3.9 3.9 46 5.9 N 54 70 29 38 - - 0.0
 
Date/Time
EDT
Temp
°C
App
Temp
°C
Dew
Point
Rel
Hum
%
Delta-T
°C
Wind Press
QNH
hPa
Press
MSL
hPa
Rain
since 9 am
mm
Dir
 
Spd
km/h
Gust
km/h
Spd
kts
Gust
kts
28/11:30pm 15.3 2.7 3.8 46 5.9 NNE 59 82 32 44 - - 0.0
28/11:19pm 15.1 2.1 3.6 46 5.8 NNE 61 83 33 45 - - 0.0
28/11:00pm 14.8 3.2 3.9 48 5.5 NNE 54 69 29 37 - - 0.0
28/10:56pm 14.8 4.0 3.9 48 5.5 NNE 50 69 27 37 - - 0.0
28/10:30pm 14.6 4.4 3.1 46 5.7 NNE 46 57 25 31 - - 0.0
28/10:00pm 14.3 5.6 4.3 51 5.1 NNE 39 48 21 26 - - 0.0
28/09:30pm 14.1 6.0 5.2 55 4.6 NNE 37 44 20 24 - - 0.0
28/09:00pm 13.9 6.0 4.5 53 4.8 NNE 35 41 19 22 - - 0.0
28/08:30pm 13.7 6.3 5.1 56 4.5 NNE 33 39 18 21 - - 0.0
28/08:00pm 13.9 5.7 5.0 55 4.6 NNE 37 44 20 24 - - 0.0
28/07:30pm 13.8 7.1 5.4 57 4.4 NNE 30 35 16 19 - - 0.0
28/07:00pm 13.8 8.4 6.4 61 3.9 NNE 24 28 13 15 - - 0.0
28/06:30pm 13.7 7.2 6.6 62 3.8 NNE 30 35 16 19 - - 0.0
28/06:00pm 13.7 8.4 6.8 63 3.7 NNE 24 28 13 15 - - 0.0
28/05:30pm 14.1 8.7 6.5 60 4.1 N 24 30 13 16 - - 0.0
28/05:00pm 14.2 8.4 6.3 59 4.2 N 26 35 14 19 - - 0.0
28/04:30pm 14.6 9.2 6.2 57 4.5 N 24 35 13 19 - - 0.0
28/04:00pm 14.6 8.3 5.7 55 4.7 N 28 39 15 21 - - 0.0
28/03:30pm 15.6 9.1 6.3 54 5.0 N 30 39 16 21 - - 0.0
28/03:00pm 15.6 9.0 6.1 53 5.1 N 30 43 16 23 - - 0.0
28/02:31pm 15.4 8.0 5.0 50 5.4 N 33 54 18 29 - - 0.0
28/02:30pm 15.8 8.6 5.1 49 5.6 N 32 48 17 26 - - 0.0
28/02:00pm 15.2 8.4 6.7 57 4.6 N 32 46 17 25 - - 0.0
28/01:30pm 16.0 8.6 6.7 54 5.0 N 35 46 19 25 - - 0.0
28/01:10pm 15.7 8.6 5.6 51 5.3 N 32 50 17 27 - - 0.0
28/01:00pm 15.6 8.4 6.1 53 5.1 N 33 44 18 24 - - 0.0
28/12:30pm 14.6 7.9 3.7 48 5.5 N 28 43 15 23 - - 0.0
28/12:00pm 14.8 8.1 5.6 54 4.8 N 30 39 16 21 - - 0.0
28/11:30am 15.0 8.5 6.3 56 4.6 N 30 41 16 22 - - 0.0
28/11:00am 14.2 7.5 3.9 50 5.2 NNE 28 37 15 20 - - 0.0
28/10:30am 13.0 5.4 3.1 51 4.9 NNE 32 39 17 21 - - 0.0
28/10:00am 12.9 4.7 2.5 49 5.1 NNE 35 41 19 22 - - 0.0
28/09:30am 13.0 5.1 2.0 47 5.3 N 33 41 18 22 - - 0.0
28/09:00am 12.4 6.1 1.4 47 5.2 N 24 30 13 16 - - 0.0
28/08:30am 14.7 12.3 7.0 60 4.2 NW 9 11 5 6 - - 0.0
28/08:00am 14.9 12.7 6.0 55 4.7 NW 7 7 4 4 - - 0.0
28/07:30am 14.0 11.9 6.8 62 3.9 N 7 9 4 5 - - 0.0
28/07:00am 13.5 12.0 5.2 57 4.3 S 2 7 1 4 - - 0.0
28/06:30am 12.5 8.7 -0.7 40 6.0 NNW 9 17 5 9 - - 0.0
28/06:00am 12.6 7.4 -2.8 34 6.7 NW 15 19 8 10 - - 0.0
28/05:30am 13.2 8.2 8.1 71 2.8 WSW 24 30 13 16 - - 0.0
28/05:00am 11.9 6.4 0.4 45 5.3 NNW 19 22 10 12 - - 0.0
28/04:30am 12.3 6.5 -1.6 38 6.2 NNW 19 22 10 12 - - 0.0
28/04:00am 12.4 5.9 -2.6 35 6.5 NNW 22 26 12 14 - - 0.0
28/03:30am 12.1 5.9 -0.4 42 5.7 NNW 22 26 12 14 - - 0.0
28/03:00am 12.0 5.2 0.8 46 5.2 N 26 32 14 17 - - 0.0
28/02:30am 12.0 4.2 -0.8 41 5.8 N 30 35 16 19 - - 0.0
28/02:00am 11.5 4.1 -0.6 43 5.5 N 28 32 15 17 - - 0.0
28/01:30am 11.1 3.8 -0.1 46 5.1 N 28 32 15 17 - - 0.0
28/01:00am 11.1 4.7 0.8 49 4.8 N 24 28 13 15 - - 0.0
28/12:30am 10.9 5.4 4.1 63 3.4 N 22 26 12 14 - - 0.0
28/12:00am 11.7 5.7 3.5 57 4.0 N 24 28 13 15 - - 0.0
 
Date/Time
EDT
Temp
°C
App
Temp
°C
Dew
Point
Rel
Hum
%
Delta-T
°C
Wind Press
QNH
hPa
Press
MSL
hPa
Rain
since 9 am
mm
Dir
 
Spd
km/h
Gust
km/h
Spd
kts
Gust
kts
27/11:30pm 12.1 6.1 3.1 54 4.4 N 24 28 13 15 - - 0.0
27/11:00pm 11.6 4.6 3.9 59 3.8 N 30 35 16 19 - - 0.0
27/10:30pm 11.5 4.8 5.4 66 3.1 N 30 33 16 18 - - 0.0
27/10:00pm 11.6 6.2 6.5 71 2.7 N 24 30 13 16 - - 0.0
27/09:30pm 11.9 6.6 6.8 71 2.7 N 24 30 13 16 - - 0.0
27/09:00pm 11.9 7.4 6.8 71 2.7 NNW 20 28 11 15 - - 0.0
27/08:30pm 12.0 7.5 6.3 68 3.0 N 19 22 10 12 - - 0.0
27/08:00pm 12.7 9.7 6.1 64 3.5 N 11 13 6 7 - - 0.0
27/07:30pm 13.1 10.3 5.3 59 4.0 NNW 9 15 5 8 - - 0.0
27/07:00pm 13.2 10.1 5.4 59 4.0 NW 11 15 6 8 - - 0.0
27/06:30pm 14.6 11.0 5.1 53 4.9 NNW 13 20 7 11 - - 0.0
27/06:00pm 14.6 10.7 6.9 60 4.2 NNW 17 24 9 13 - - 0.0
27/05:30pm 14.5 10.7 5.8 56 4.6 NW 15 22 8 12 - - 0.0
27/05:00pm 14.7 11.4 8.2 65 3.6 W 15 24 8 13 - - 0.0
27/04:30pm 14.8 11.1 8.1 64 3.7 NW 17 24 9 13 - - 0.0
27/04:00pm 15.2 12.3 9.6 69 3.2 NW 15 26 8 14 - - 0.0
27/03:30pm 14.0 9.9 7.8 66 3.4 NW 19 41 10 22 - - 0.0
27/03:00pm 13.8 10.1 7.8 67 3.3 NNW 17 32 9 17 - - 0.0

Other Formats:

Comma delimited format used in spreadsheet applications
http://www.bom.gov.au/fwo/IDV60801/IDV60801.94906.axf

JavaScript Object Notation format (JSON) in row-major order
http://www.bom.gov.au/fwo/IDV60801/IDV60801.94906.json